Terminal Aerodrome Forecast
Issued by NWS Cleveland, OH

Home | Current Version | Previous Version | Text Only | Print | Product List | Glossary Off
Versions: 1 2 3 4 5 6 7 8 9 10 11 12 13 14 15 16 17

000
FTUS41 KCLE 241100
TAFERI
TAF
KERI 241126Z 2412/2512 20025G35KT P6SM VCSH SCT025 OVC040
     FM242000 21030G40KT P6SM OVC035
      TEMPO 2420/2422 3SM -SHRA
     FM250100 22025G35KT P6SM OVC035=

USA.gov is the U.S. government's official web portal to all federal, state and local government web resources and services.